Time;durP1;ratioP1;P1;durP2;ratioP2;P2;SDS_P1;SDS_P2;PMS_P1;PMS_P2;Temp;Humidity;BMP_temperature;BMP_pressure;BME280_temperature;BME280_humidity;BME280_pressure;Samples;Min_cycle;Max_cycle;Signal;HPM_P1;HPM_P2
2023/10/01 00:01:05;;;;;;;19.52;3.22;;;;;;;;;;6088314;23;20023;-53
2023/10/01 00:04:00;;;;;;;21.05;2.78;;;;;;;;;;6087839;23;20018;-55
2023/10/01 00:06:46;;;;;;;28.05;3.05;;;;;;;;;;6086692;23;20030;-56
2023/10/01 00:09:40;;;;;;;22.08;2.65;;;;;;;;;;6087999;23;20542;-57
2023/10/01 00:12:34;;;;;;;15.77;2.58;;;;;;;;;;6086049;23;20027;-69
2023/10/01 00:15:29;;;;;;;17.23;3.15;;;;;;;;;;6086409;23;20031;-70
2023/10/01 00:18:15;;;;;;;17.98;2.58;;;;;;;;;;6088610;23;20022;-70
2023/10/01 00:21:08;;;;;;;17.02;2.20;;;;;;;;;;6087737;23;20030;-71
2023/10/01 00:23:56;;;;;;;28.38;3.40;;;;;;;;;;6088084;23;20070;-70
2023/10/01 00:26:50;;;;;;;15.45;2.17;;;;;;;;;;6087410;23;20026;-65
2023/10/01 00:29:37;;;;;;;21.67;2.83;;;;;;;;;;6086620;23;20361;-60
2023/10/01 00:32:31;;;;;;;14.13;2.70;;;;;;;;;;6088805;23;20077;-60
2023/10/01 00:35:18;;;;;;;16.80;2.47;;;;;;;;;;6089299;23;20027;-59
2023/10/01 00:38:11;;;;;;;20.65;3.08;;;;;;;;;;6086379;23;20367;-59
2023/10/01 00:40:59;;;;;;;21.50;2.78;;;;;;;;;;6087148;23;20030;-59
2023/10/01 00:43:55;;;;;;;18.70;3.20;;;;;;;;;;6086681;23;20029;-60
2023/10/01 00:46:40;;;;;;;26.75;3.13;;;;;;;;;;6085150;23;20591;-55
2023/10/01 00:49:38;;;;;;;15.50;2.83;;;;;;;;;;6086928;23;20023;-54
2023/10/01 00:52:24;;;;;;;24.83;2.70;;;;;;;;;;6085404;23;20097;-57
2023/10/01 00:55:20;;;;;;;15.48;2.42;;;;;;;;;;6086747;23;20026;-65
2023/10/01 00:58:06;;;;;;;19.58;2.63;;;;;;;;;;6085142;23;20030;-60
2023/10/01 01:01:00;;;;;;;13.18;2.50;;;;;;;;;;6086279;23;20034;-60
2023/10/01 01:03:52;;;;;;;21.60;3.30;;;;;;;;;;6086623;23;20030;-60
2023/10/01 01:06:41;;;;;;;13.20;2.97;;;;;;;;;;6086054;23;20054;-59
2023/10/01 01:09:28;;;;;;;20.25;2.00;;;;;;;;;;6087018;23;20050;-59
2023/10/01 01:12:35;;;;;;;22.60;2.83;;;;;;;;;;6084852;23;20105;-60
2023/10/01 01:15:33;;;;;;;23.00;3.03;;;;;;;;;;6086926;23;20034;-59
2023/10/01 01:18:26;;;;;;;20.40;3.00;;;;;;;;;;6086992;23;20094;-59
2023/10/01 01:21:10;;;;;;;24.77;3.25;;;;;;;;;;6087753;23;20030;-59
2023/10/01 01:24:04;;;;;;;23.73;2.78;;;;;;;;;;6087516;23;20033;-57
2023/10/01 01:26:51;;;;;;;15.90;2.20;;;;;;;;;;6087411;23;20073;-59
2023/10/01 01:29:45;;;;;;;22.02;2.80;;;;;;;;;;6086433;23;20420;-56
2023/10/01 01:32:32;;;;;;;15.35;2.58;;;;;;;;;;6085558;23;20817;-61
2023/10/01 01:35:29;;;;;;;21.40;2.83;;;;;;;;;;6085863;23;20137;-58
2023/10/01 01:38:16;;;;;;;14.48;2.55;;;;;;;;;;6083698;23;20029;-59
2023/10/01 01:41:12;;;;;;;19.85;2.50;;;;;;;;;;6076367;23;20027;-58
2023/10/01 01:43:57;;;;;;;17.65;2.90;;;;;;;;;;6086894;23;20026;-59
2023/10/01 01:46:59;;;;;;;22.42;2.85;;;;;;;;;;6085801;23;20026;-59
2023/10/01 01:49:42;;;;;;;28.90;3.72;;;;;;;;;;6085113;23;20121;-60
2023/10/01 01:52:31;;;;;;;21.98;2.83;;;;;;;;;;6086648;23;20405;-64
2023/10/01 01:55:26;;;;;;;21.38;2.55;;;;;;;;;;6084929;23;20077;-48
2023/10/01 01:58:24;;;;;;;22.65;3.10;;;;;;;;;;6086937;23;20034;-49
2023/10/01 02:01:08;;;;;;;23.40;3.08;;;;;;;;;;6086567;23;20029;-46
2023/10/01 02:04:02;;;;;;;22.98;2.75;;;;;;;;;;6087162;23;20054;-49
2023/10/01 02:06:54;;;;;;;20.25;2.80;;;;;;;;;;6086513;23;20033;-48
2023/10/01 02:09:48;;;;;;;23.02;3.00;;;;;;;;;;6087148;23;20033;-53
2023/10/01 02:12:48;;;;;;;15.38;2.40;;;;;;;;;;6085369;23;20026;-54
2023/10/01 02:15:35;;;;;;;17.23;2.55;;;;;;;;;;6087652;23;20026;-57
2023/10/01 02:18:29;;;;;;;14.75;2.65;;;;;;;;;;6086367;23;20465;-60
2023/10/01 02:21:17;;;;;;;14.45;2.70;;;;;;;;;;6085109;23;20034;-59
2023/10/01 02:24:14;;;;;;;29.63;2.60;;;;;;;;;;6085473;23;20140;-58
2023/10/01 02:27:03;;;;;;;19.10;2.95;;;;;;;;;;6085297;23;20361;-60
2023/10/01 02:32:49;;;;;;;20.35;2.85;;;;;;;;;;6086760;23;20031;-59
2023/10/01 02:35:36;;;;;;;20.73;3.00;;;;;;;;;;6087402;23;20033;-58
2023/10/01 02:38:53;;;;;;;14.77;2.13;;;;;;;;;;6086717;23;20528;-64
2023/10/01 02:42:03;;;;;;;15.00;2.00;;;;;;;;;;6087374;23;20030;-65
2023/10/01 02:44:29;;;;;;;17.00;2.45;;;;;;;;;;6087624;23;20026;-65
2023/10/01 02:47:24;;;;;;;17.33;2.55;;;;;;;;;;6084943;23;20026;-70
2023/10/01 02:50:15;;;;;;;17.58;2.60;;;;;;;;;;6085691;23;20571;-58
2023/10/01 02:53:04;;;;;;;22.50;2.60;;;;;;;;;;6085233;23;20026;-57
2023/10/01 02:56:02;;;;;;;18.08;2.70;;;;;;;;;;6085422;23;20050;-58
2023/10/01 02:58:49;;;;;;;23.80;3.05;;;;;;;;;;6084422;23;20054;-56
2023/10/01 03:01:39;;;;;;;20.98;2.70;;;;;;;;;;6084340;23;20401;-56
2023/10/01 03:04:27;;;;;;;18.83;2.40;;;;;;;;;;6084061;23;20045;-55
2023/10/01 03:07:45;;;;;;;24.15;2.67;;;;;;;;;;6084514;23;20125;-53
2023/10/01 03:10:31;;;;;;;14.65;2.17;;;;;;;;;;6085091;23;20144;-56
2023/10/01 03:13:30;;;;;;;21.15;2.92;;;;;;;;;;6082838;23;20022;-55
2023/10/01 03:16:45;;;;;;;19.30;2.67;;;;;;;;;;6085921;23;20038;-58
2023/10/01 03:19:28;;;;;;;20.23;2.33;;;;;;;;;;6083602;23;20041;-58
2023/10/01 03:22:31;;;;;;;21.67;2.65;;;;;;;;;;6084461;23;20376;-60
2023/10/01 03:25:15;;;;;;;14.35;2.50;;;;;;;;;;6084496;23;20086;-59
2023/10/01 03:28:07;;;;;;;20.48;2.42;;;;;;;;;;6085427;23;20477;-60
2023/10/01 03:31:12;;;;;;;23.10;3.42;;;;;;;;;;6083612;23;20097;-60
2023/10/01 03:34:04;;;;;;;23.63;2.88;;;;;;;;;;6084183;23;20117;-59
2023/10/01 03:36:52;;;;;;;20.90;2.50;;;;;;;;;;6085234;23;20022;-59
2023/10/01 03:39:44;;;;;;;21.98;2.47;;;;;;;;;;6087085;23;20026;-60
2023/10/01 03:42:33;;;;;;;20.92;2.70;;;;;;;;;;6084831;23;20030;-58
2023/10/01 03:48:12;;;;;;;19.55;2.03;;;;;;;;;;6085113;23;20030;-59
2023/10/01 03:50:55;;;;;;;18.70;3.17;;;;;;;;;;6085724;23;20026;-58
2023/10/01 03:53:51;;;;;;;17.60;2.10;;;;;;;;;;6086259;23;20077;-58
2023/10/01 03:56:36;;;;;;;21.00;2.85;;;;;;;;;;6084435;23;20030;-67
2023/10/01 03:59:32;;;;;;;24.75;2.67;;;;;;;;;;6086395;23;20731;-68
2023/10/01 04:02:27;;;;;;;11.52;1.98;;;;;;;;;;6084673;23;20362;-68
2023/10/01 04:05:56;;;;;;;20.23;2.20;;;;;;;;;;6084450;23;20072;-68
2023/10/01 04:08:15;;;;;;;20.58;2.20;;;;;;;;;;6079565;23;20338;-67
2023/10/01 04:11:41;;;;;;;17.73;1.88;;;;;;;;;;6083201;23;20030;-59
2023/10/01 04:14:17;;;;;;;15.05;2.38;;;;;;;;;;6086725;23;20022;-68
2023/10/01 04:17:13;;;;;;;16.08;2.10;;;;;;;;;;6086461;23;20465;-68
2023/10/01 04:20:19;;;;;;;24.70;2.53;;;;;;;;;;6087817;23;20073;-68
2023/10/01 04:23:04;;;;;;;13.65;1.90;;;;;;;;;;6086737;23;20026;-67
2023/10/01 04:25:51;;;;;;;16.35;2.28;;;;;;;;;;6086631;23;20030;-68
2023/10/01 04:28:46;;;;;;;15.73;2.25;;;;;;;;;;6087761;23;20026;-58
2023/10/01 04:31:42;;;;;;;18.42;2.88;;;;;;;;;;6087817;23;20407;-58
2023/10/01 04:34:35;;;;;;;13.55;2.28;;;;;;;;;;6086942;23;20034;-58
2023/10/01 04:37:36;;;;;;;11.00;2.35;;;;;;;;;;6086033;23;20085;-58
2023/10/01 04:40:31;;;;;;;18.92;2.00;;;;;;;;;;6086326;23;20030;-56
2023/10/01 04:43:16;;;;;;;19.17;2.92;;;;;;;;;;6085566;23;20030;-57
2023/10/01 04:46:08;;;;;;;6.57;1.35;;;;;;;;;;6086748;23;20026;-52
2023/10/01 04:49:08;;;;;;;15.57;1.80;;;;;;;;;;6086863;23;20357;-54
2023/10/01 04:52:10;;;;;;;14.63;1.90;;;;;;;;;;6087365;23;20061;-57
2023/10/01 04:54:50;;;;;;;21.02;2.42;;;;;;;;;;6088197;23;20472;-58
2023/10/01 04:57:50;;;;;;;16.45;2.08;;;;;;;;;;6089913;23;20026;-68
2023/10/01 05:00:37;;;;;;;23.52;2.28;;;;;;;;;;6089243;23;20027;-69
2023/10/01 05:03:38;;;;;;;17.85;2.30;;;;;;;;;;6086306;23;20049;-67
2023/10/01 05:06:26;;;;;;;20.70;2.92;;;;;;;;;;6087616;23;20030;-68
2023/10/01 05:09:22;;;;;;;15.15;2.22;;;;;;;;;;6088670;23;20077;-68
2023/10/01 05:12:12;;;;;;;25.45;2.80;;;;;;;;;;6084800;23;20136;-68
2023/10/01 05:15:17;;;;;;;21.38;2.40;;;;;;;;;;6088026;23;20462;-68
2023/10/01 05:17:55;;;;;;;26.05;2.50;;;;;;;;;;6086794;23;20034;-63
2023/10/01 05:20:48;;;;;;;12.18;2.17;;;;;;;;;;6086694;23;20027;-50
2023/10/01 05:23:36;;;;;;;14.98;2.08;;;;;;;;;;6084488;23;20027;-45
2023/10/01 05:26:35;;;;;;;23.98;2.75;;;;;;;;;;6086008;23;20034;-47
2023/10/01 05:29:20;;;;;;;11.60;2.33;;;;;;;;;;6085239;23;20030;-46
2023/10/01 05:32:12;;;;;;;18.08;2.63;;;;;;;;;;6085248;23;20413;-45
2023/10/01 05:35:14;;;;;;;17.27;2.22;;;;;;;;;;6085728;23;20030;-45
2023/10/01 05:37:53;;;;;;;31.95;3.63;;;;;;;;;;6084917;23;20030;-59
2023/10/01 05:40:40;;;;;;;18.38;2.22;;;;;;;;;;6083410;23;20026;-59
2023/10/01 05:43:37;;;;;;;24.00;3.15;;;;;;;;;;6084648;23;20030;-60
2023/10/01 05:46:08;;;;;;;23.30;3.15;;;;;;;;;;6088373;23;20427;-59
2023/10/01 05:49:03;;;;;;;32.42;3.20;;;;;;;;;;6086951;23;20048;-60
2023/10/01 05:51:50;;;;;;;32.17;2.90;;;;;;;;;;6086376;23;20031;-59
2023/10/01 05:54:52;;;;;;;22.67;2.58;;;;;;;;;;6085670;23;20022;-56
2023/10/01 05:57:31;;;;;;;25.02;2.90;;;;;;;;;;6085564;23;20061;-49
2023/10/01 06:00:27;;;;;;;30.67;3.08;;;;;;;;;;6086356;23;20097;-47
2023/10/01 06:03:13;;;;;;;21.85;2.45;;;;;;;;;;6086016;23;20030;-46
2023/10/01 06:06:10;;;;;;;19.08;2.53;;;;;;;;;;6088784;23;20030;-48
2023/10/01 06:08:59;;;;;;;20.70;2.92;;;;;;;;;;6087450;23;20033;-46
2023/10/01 06:12:03;;;;;;;19.58;2.50;;;;;;;;;;6086120;23;20110;-68
2023/10/01 06:14:48;;;;;;;21.70;2.60;;;;;;;;;;6087402;23;20031;-59
2023/10/01 06:17:42;;;;;;;23.10;3.05;;;;;;;;;;6085585;23;20026;-58
2023/10/01 06:20:28;;;;;;;27.20;3.20;;;;;;;;;;6080072;23;20575;-59
2023/10/01 06:23:02;;;;;;;19.55;2.42;;;;;;;;;;6083333;23;20057;-59
2023/10/01 06:25:40;;;;;;;22.38;2.65;;;;;;;;;;6087104;23;20086;-59
2023/10/01 06:28:20;;;;;;;23.90;2.67;;;;;;;;;;6081749;23;20053;-59
2023/10/01 06:30:48;;;;;;;14.65;2.60;;;;;;;;;;6081579;23;20022;-64
2023/10/01 06:33:41;;;;;;;16.10;2.13;;;;;;;;;;6082289;23;20473;-59
2023/10/01 06:36:36;;;;;;;19.52;2.22;;;;;;;;;;6082235;23;20117;-59
2023/10/01 06:39:35;;;;;;;22.25;3.00;;;;;;;;;;6081075;23;20022;-59
2023/10/01 06:42:20;;;;;;;18.65;2.70;;;;;;;;;;6080221;23;20030;-59
2023/10/01 06:45:15;;;;;;;20.85;2.92;;;;;;;;;;6084782;23;20508;-58
2023/10/01 06:48:08;;;;;;;24.00;3.13;;;;;;;;;;6083621;23;20451;-57
2023/10/01 06:50:56;;;;;;;18.63;2.53;;;;;;;;;;6084982;23;20026;-58
2023/10/01 06:53:45;;;;;;;19.63;2.53;;;;;;;;;;6079935;23;20022;-59
2023/10/01 06:56:47;;;;;;;12.93;2.20;;;;;;;;;;6083517;23;20037;-60
2023/10/01 06:59:30;;;;;;;25.75;2.90;;;;;;;;;;6080886;23;20041;-60
2023/10/01 07:02:27;;;;;;;18.60;2.60;;;;;;;;;;6080426;23;20381;-59
2023/10/01 07:05:20;;;;;;;11.45;1.83;;;;;;;;;;6079018;23;20053;-60
2023/10/01 07:08:07;;;;;;;8.20;1.88;;;;;;;;;;6080067;23;20030;-60
2023/10/01 07:11:11;;;;;;;16.85;2.95;;;;;;;;;;6079427;23;20037;-60
2023/10/01 07:13:56;;;;;;;9.35;2.10;;;;;;;;;;6054975;23;20023;-60
2023/10/01 07:16:44;;;;;;;15.32;5.70;;;;;;;;;;6053643;23;20031;-60
2023/10/01 07:19:36;;;;;;;20.60;4.68;;;;;;;;;;6051350;23;20027;-60
2023/10/01 07:22:38;;;;;;;15.77;3.05;;;;;;;;;;6054245;23;20466;-60
2023/10/01 07:25:43;;;;;;;12.02;2.38;;;;;;;;;;6052691;23;20027;-55
2023/10/01 07:28:34;;;;;;;13.10;2.28;;;;;;;;;;6054398;23;20079;-66
2023/10/01 07:31:33;;;;;;;15.68;2.55;;;;;;;;;;6054660;23;20118;-65
2023/10/01 07:34:21;;;;;;;17.88;3.80;;;;;;;;;;6053985;23;20086;-66
2023/10/01 07:37:09;;;;;;;21.92;4.40;;;;;;;;;;6055635;23;20023;-67
2023/10/01 07:40:09;;;;;;;18.42;4.70;;;;;;;;;;6056400;23;20023;-65
2023/10/01 07:42:57;;;;;;;16.33;2.80;;;;;;;;;;6054698;23;20477;-59
2023/10/01 07:45:58;;;;;;;16.23;2.70;;;;;;;;;;6055510;23;20156;-48
2023/10/01 07:48:47;;;;;;;13.73;2.92;;;;;;;;;;6052973;23;20027;-48
2023/10/01 07:51:38;;;;;;;10.50;2.50;;;;;;;;;;6054364;23;20019;-48
2023/10/01 07:54:28;;;;;;;12.60;2.90;;;;;;;;;;6054727;23;20078;-49
2023/10/01 07:57:02;;;;;;;;;;;;;;;;;;6054433;23;20027;-47
2023/10/01 07:59:53;;;;;;;12.95;2.75;;;;;;;;;;6055413;23;20245;-46
2023/10/01 08:05:38;;;;;;;13.27;2.15;;;;;;;;;;6049807;23;20030;-70
2023/10/01 08:08:37;;;;;;;20.35;2.83;;;;;;;;;;6055160;23;20027;-69
2023/10/01 08:11:58;;;;;;;19.05;2.88;;;;;;;;;;6054523;23;20027;-70
2023/10/01 08:15:15;;;;;;;16.13;2.83;;;;;;;;;;6080302;23;20039;-70
2023/10/01 08:17:45;;;;;;;;;;;;;;;;;;6082881;23;20705;-70
2023/10/01 08:20:32;;;;;;;12.60;3.45;;;;;;;;;;6080540;23;19941;-57
2023/10/01 08:23:33;;;;;;;18.60;3.33;;;;;;;;;;6082498;23;20022;-50
2023/10/01 08:29:15;;;;;;;15.10;3.03;;;;;;;;;;6078973;23;20345;-50
2023/10/01 08:32:08;;;;;;;16.35;2.95;;;;;;;;;;6082596;23;20089;-47
2023/10/01 08:35:06;;;;;;;13.25;2.53;;;;;;;;;;6083449;23;20101;-45
2023/10/01 08:37:59;;;;;;;12.23;2.55;;;;;;;;;;6081995;23;20026;-58
2023/10/01 08:40:45;;;;;;;17.55;2.60;;;;;;;;;;6086365;23;20029;-57
2023/10/01 08:43:36;;;;;;;16.48;3.35;;;;;;;;;;6086534;23;20078;-56
2023/10/01 08:46:31;;;;;;;15.90;2.55;;;;;;;;;;6086874;23;20033;-56
2023/10/01 08:49:23;;;;;;;17.17;3.13;;;;;;;;;;6086200;23;20029;-57
2023/10/01 08:52:19;;;;;;;12.55;3.28;;;;;;;;;;6083503;23;20485;-55
2023/10/01 08:55:12;;;;;;;9.85;2.47;;;;;;;;;;6086353;23;20396;-55
2023/10/01 08:58:13;;;;;;;12.73;3.15;;;;;;;;;;6085522;23;20026;-53
2023/10/01 09:01:10;;;;;;;10.02;3.03;;;;;;;;;;6084845;23;20102;-51
2023/10/01 09:03:47;;;;;;;11.90;3.03;;;;;;;;;;6082824;23;20022;-56
2023/10/01 09:06:58;;;;;;;10.52;2.50;;;;;;;;;;6082177;23;20029;-56
2023/10/01 09:09:52;;;;;;;19.60;3.10;;;;;;;;;;6082978;23;20453;-52
2023/10/01 09:12:56;;;;;;;14.80;2.80;;;;;;;;;;6082236;23;20369;-54
2023/10/01 09:15:55;;;;;;;11.68;2.30;;;;;;;;;;6083544;23;20038;-68
2023/10/01 09:19:29;;;;;;;9.07;2.20;;;;;;;;;;6082396;23;20464;-64
2023/10/01 09:21:56;;;;;;;16.67;2.70;;;;;;;;;;6081827;23;20093;-63
2023/10/01 09:24:56;;;;;;;13.88;2.38;;;;;;;;;;6081218;23;20693;-62
2023/10/01 09:28:03;;;;;;;7.68;2.30;;;;;;;;;;6081982;23;20053;-63
2023/10/01 09:31:01;;;;;;;9.23;2.40;;;;;;;;;;6082236;23;20085;-62
2023/10/01 09:33:35;;;;;;;11.35;2.38;;;;;;;;;;6083801;23;20029;-57
2023/10/01 09:36:37;;;;;;;12.05;2.35;;;;;;;;;;6084238;23;20026;-68
2023/10/01 09:39:38;;;;;;;10.43;2.63;;;;;;;;;;6083342;23;20022;-67
2023/10/01 09:42:25;;;;;;;11.70;2.58;;;;;;;;;;6081858;23;20093;-68
2023/10/01 09:45:27;;;;;;;11.18;2.30;;;;;;;;;;6080280;23;20033;-70
2023/10/01 09:48:30;;;;;;;5.82;1.90;;;;;;;;;;6085328;23;20066;-68
2023/10/01 09:51:31;;;;;;;11.80;2.42;;;;;;;;;;6083542;23;20026;-58
2023/10/01 09:54:13;;;;;;;10.40;2.63;;;;;;;;;;6083437;23;20129;-55
2023/10/01 09:57:08;;;;;;;14.18;2.67;;;;;;;;;;6085441;23;20026;-56
2023/10/01 10:00:14;;;;;;;7.93;2.08;;;;;;;;;;6083396;23;20027;-55
2023/10/01 10:02:53;;;;;;;11.43;2.65;;;;;;;;;;6084002;23;20422;-56
2023/10/01 10:05:40;;;;;;;11.93;2.63;;;;;;;;;;6079940;23;20409;-57
2023/10/01 10:08:37;;;;;;;10.00;2.40;;;;;;;;;;6083149;23;20544;-58
2023/10/01 10:11:26;;;;;;;9.02;2.08;;;;;;;;;;6083900;23;20022;-61
2023/10/01 10:14:28;;;;;;;10.48;2.30;;;;;;;;;;6084264;23;20027;-59
2023/10/01 10:20:15;;;;;;;11.02;2.22;;;;;;;;;;6084753;23;20026;-58
2023/10/01 10:23:13;;;;;;;7.95;2.20;;;;;;;;;;6082519;23;20365;-58
2023/10/01 10:26:12;;;;;;;;;;;;;;;;;;6085503;23;20030;-58
2023/10/01 10:28:55;;;;;;;6.65;1.73;;;;;;;;;;6085129;23;19917;-59
2023/10/01 10:32:09;;;;;;;15.63;2.45;;;;;;;;;;6085481;23;20070;-45
2023/10/01 10:35:16;;;;;;;5.63;1.92;;;;;;;;;;6083878;23;20934;-46
2023/10/01 10:38:30;;;;;;;7.78;2.08;;;;;;;;;;6085381;23;20026;-47
2023/10/01 10:41:19;;;;;;;10.10;1.90;;;;;;;;;;6082933;23;20093;-47
2023/10/01 10:44:12;;;;;;;10.00;2.00;;;;;;;;;;6084026;23;20022;-49
2023/10/01 10:46:59;;;;;;;8.48;2.00;;;;;;;;;;6085798;23;20079;-58
2023/10/01 10:49:53;;;;;;;7.25;2.13;;;;;;;;;;6085449;23;20022;-62
2023/10/01 10:52:40;;;;;;;6.03;2.15;;;;;;;;;;6086372;23;20440;-62
2023/10/01 10:55:36;;;;;;;12.05;2.05;;;;;;;;;;6084141;23;20026;-63
2023/10/01 10:58:24;;;;;;;6.07;2.00;;;;;;;;;;6083816;23;20097;-63
2023/10/01 11:01:16;;;;;;;10.93;2.30;;;;;;;;;;6085001;23;20026;-63
2023/10/01 11:04:12;;;;;;;7.20;2.13;;;;;;;;;;6085179;23;20031;-63
2023/10/01 11:07:02;;;;;;;5.38;2.05;;;;;;;;;;6083056;23;20477;-58
2023/10/01 11:10:03;;;;;;;7.95;2.38;;;;;;;;;;6084498;23;20030;-63
2023/10/01 11:12:54;;;;;;;8.57;2.17;;;;;;;;;;6081574;23;20027;-63
2023/10/01 11:15:40;;;;;;;9.00;2.25;;;;;;;;;;6084322;23;20101;-63
2023/10/01 11:18:28;;;;;;;4.30;2.17;;;;;;;;;;6082448;23;20027;-63
2023/10/01 11:21:31;;;;;;;11.23;2.33;;;;;;;;;;6083556;23;20476;-63
2023/10/01 11:24:10;;;;;;;6.80;2.03;;;;;;;;;;6083160;23;20022;-58
2023/10/01 11:27:25;;;;;;;7.53;1.80;;;;;;;;;;6083869;23;20065;-50
2023/10/01 11:30:24;;;;;;;6.57;1.88;;;;;;;;;;6083508;23;20027;-47
2023/10/01 11:33:13;;;;;;;6.50;2.25;;;;;;;;;;6084233;23;20481;-50
2023/10/01 11:36:09;;;;;;;8.68;2.30;;;;;;;;;;6087058;23;20394;-51
2023/10/01 11:38:57;;;;;;;8.73;1.45;;;;;;;;;;6085680;23;20539;-49
2023/10/01 11:41:52;;;;;;;9.20;1.90;;;;;;;;;;6083873;23;20030;-59
2023/10/01 11:44:43;;;;;;;8.52;1.75;;;;;;;;;;6085318;23;20081;-54
2023/10/01 11:48:04;;;;;;;4.00;1.45;;;;;;;;;;6085186;23;20840;-54
2023/10/01 11:50:50;;;;;;;9.15;1.50;;;;;;;;;;6075192;23;20109;-56
2023/10/01 11:53:58;;;;;;;5.72;1.33;;;;;;;;;;6084206;23;20026;-56
2023/10/01 11:57:04;;;;;;;7.65;1.23;;;;;;;;;;6084927;23;20042;-57
2023/10/01 11:59:42;;;;;;;6.40;1.50;;;;;;;;;;6085026;23;20030;-58
2023/10/01 12:02:32;;;;;;;5.30;1.55;;;;;;;;;;6085393;23;20026;-63
2023/10/01 12:05:38;;;;;;;5.60;1.63;;;;;;;;;;6083917;23;20033;-63
2023/10/01 12:08:18;;;;;;;7.30;1.65;;;;;;;;;;6086269;23;20049;-63
2023/10/01 12:11:26;;;;;;;7.10;1.42;;;;;;;;;;6086835;23;20026;-62
2023/10/01 12:14:21;;;;;;;3.70;1.02;;;;;;;;;;6083874;23;20034;-62
2023/10/01 12:17:16;;;;;;;7.38;1.55;;;;;;;;;;6085399;23;20026;-63
2023/10/01 12:20:03;;;;;;;7.15;1.90;;;;;;;;;;6086581;23;20028;-54
2023/10/01 12:23:11;;;;;;;9.00;1.70;;;;;;;;;;6086801;23;20488;-59
2023/10/01 12:28:32;;;;;;;10.50;1.45;;;;;;;;;;6086594;23;20457;-59
2023/10/01 12:31:27;;;;;;;7.72;1.65;;;;;;;;;;6086728;23;20022;-58
2023/10/01 12:34:16;;;;;;;6.72;1.58;;;;;;;;;;6085740;23;20074;-59
2023/10/01 12:36:51;;;;;;;6.93;1.00;;;;;;;;;;6084852;23;20030;-53
2023/10/01 12:39:37;;;;;;;5.68;1.73;;;;;;;;;;6084747;23;20026;-56
2023/10/01 12:42:31;;;;;;;6.18;1.27;;;;;;;;;;6084593;23;20085;-55
2023/10/01 12:45:13;;;;;;;8.10;1.65;;;;;;;;;;6084805;23;20034;-57
2023/10/01 12:47:52;;;;;;;6.55;1.10;;;;;;;;;;6084011;23;20033;-57
2023/10/01 12:50:59;;;;;;;5.90;1.15;;;;;;;;;;6083987;23;20095;-58
2023/10/01 12:53:49;;;;;;;7.00;1.60;;;;;;;;;;6083266;23;20582;-53
2023/10/01 12:56:43;;;;;;;7.13;1.35;;;;;;;;;;6085561;23;20034;-58
2023/10/01 12:59:20;;;;;;;9.30;1.40;;;;;;;;;;6086694;23;20077;-58
2023/10/01 13:02:22;;;;;;;7.75;1.25;;;;;;;;;;6085691;23;20346;-58
2023/10/01 13:05:22;;;;;;;8.60;1.45;;;;;;;;;;6085759;23;20030;-58
2023/10/01 13:08:05;;;;;;;5.13;1.13;;;;;;;;;;6087020;23;20077;-59
2023/10/01 13:10:38;;;;;;;7.75;1.60;;;;;;;;;;6084634;23;20081;-59
2023/10/01 13:13:36;;;;;;;4.32;1.00;;;;;;;;;;6083202;23;20022;-60
2023/10/01 13:16:23;;;;;;;6.78;1.35;;;;;;;;;;6084440;23;20030;-59
2023/10/01 13:19:23;;;;;;;9.43;1.60;;;;;;;;;;6084786;23;20121;-58
2023/10/01 13:22:18;;;;;;;7.18;2.08;;;;;;;;;;6084848;23;20026;-58
2023/10/01 13:25:03;;;;;;;5.90;1.70;;;;;;;;;;6083866;23;20023;-59
2023/10/01 13:28:01;;;;;;;6.50;1.40;;;;;;;;;;6083955;23;20026;-59
2023/10/01 13:34:48;;;;;;;8.45;1.40;;;;;;;;;;6085068;23;20030;-58
2023/10/01 13:36:35;;;;;;;8.32;1.67;;;;;;;;;;6060258;23;20022;-58
2023/10/01 14:10:23;;;;;;;9.40;1.45;;;;;;;;;;6084265;23;20026;-57
2023/10/01 14:13:29;;;;;;;7.80;1.50;;;;;;;;;;6082841;23;20026;-63
2023/10/01 14:16:24;;;;;;;5.15;1.40;;;;;;;;;;6083203;23;20022;-63
2023/10/01 14:19:18;;;;;;;6.93;1.38;;;;;;;;;;6082342;23;20026;-63
2023/10/01 14:21:51;;;;;;;5.00;1.42;;;;;;;;;;6082642;23;20030;-62
2023/10/01 14:24:25;;;;;;;5.63;1.50;;;;;;;;;;6082282;23;20544;-62
2023/10/01 14:27:25;;;;;;;5.80;1.33;;;;;;;;;;6081866;23;20030;-66
2023/10/01 14:30:24;;;;;;;6.22;1.30;;;;;;;;;;6082413;23;20026;-58
2023/10/01 14:33:25;;;;;;;8.23;1.45;;;;;;;;;;6083036;23;20385;-58
2023/10/01 14:36:05;;;;;;;6.65;1.65;;;;;;;;;;6083261;23;20030;-59
2023/10/01 14:39:14;;;;;;;8.00;1.65;;;;;;;;;;6082610;23;20947;-58
2023/10/01 14:42:18;;;;;;;9.27;4.40;;;;;;;;;;6083787;23;20031;-58
2023/10/01 14:45:04;;;;;;;8.05;2.72;;;;;;;;;;6083225;23;20034;-58
2023/10/01 14:47:48;;;;;;;13.13;6.68;;;;;;;;;;6083016;23;20109;-63
2023/10/01 14:50:42;;;;;;;7.68;2.55;;;;;;;;;;6084152;23;20078;-58
2023/10/01 14:53:36;;;;;;;8.75;3.75;;;;;;;;;;6085321;23;20037;-58
2023/10/01 14:56:23;;;;;;;12.00;2.95;;;;;;;;;;6082674;23;20536;-58
2023/10/01 14:59:14;;;;;;;14.18;5.00;;;;;;;;;;6084175;23;20030;-58
2023/10/01 15:02:15;;;;;;;10.27;3.13;;;;;;;;;;6084389;23;20729;-59
2023/10/01 15:05:07;;;;;;;9.00;1.90;;;;;;;;;;6084613;23;20101;-56
2023/10/01 15:07:45;;;;;;;39.78;17.92;;;;;;;;;;6082035;23;20081;-56
2023/10/01 15:10:49;;;;;;;28.95;12.40;;;;;;;;;;6083216;23;20378;-57
2023/10/01 15:13:36;;;;;;;13.10;4.63;;;;;;;;;;6082234;23;20023;-55
2023/10/01 15:16:36;;;;;;;21.95;9.63;;;;;;;;;;6082577;23;20037;-57
2023/10/01 15:19:46;;;;;;;28.60;7.80;;;;;;;;;;6083194;23;20022;-53
2023/10/01 15:22:30;;;;;;;13.55;3.88;;;;;;;;;;6082058;23;20025;-58
2023/10/01 15:25:18;;;;;;;16.35;4.53;;;;;;;;;;6083821;23;20465;-53
2023/10/01 15:28:15;;;;;;;15.25;5.50;;;;;;;;;;6083359;23;20048;-54
2023/10/01 15:31:10;;;;;;;18.88;5.93;;;;;;;;;;6082724;23;20405;-52
2023/10/01 15:34:06;;;;;;;29.77;11.23;;;;;;;;;;6084002;23;20125;-55
2023/10/01 15:37:02;;;;;;;23.88;8.27;;;;;;;;;;6084313;23;20033;-55
2023/10/01 15:39:47;;;;;;;7.35;2.80;;;;;;;;;;6082822;23;20034;-53
2023/10/01 15:42:53;;;;;;;9.27;1.40;;;;;;;;;;6083364;23;20022;-67
2023/10/01 15:45:30;;;;;;;9.07;1.63;;;;;;;;;;6081058;23;20094;-62
2023/10/01 15:48:24;;;;;;;7.40;1.58;;;;;;;;;;6083221;23;20026;-63
2023/10/01 15:51:22;;;;;;;9.90;1.55;;;;;;;;;;6084066;23;20030;-63
2023/10/01 15:54:22;;;;;;;7.38;1.73;;;;;;;;;;6082886;23;20085;-63
2023/10/01 15:57:01;;;;;;;8.43;1.67;;;;;;;;;;6081796;23;20027;-63
2023/10/01 15:59:48;;;;;;;5.85;1.60;;;;;;;;;;6083882;23;20469;-50
2023/10/01 16:02:42;;;;;;;7.72;1.75;;;;;;;;;;6084398;23;20528;-59
2023/10/01 16:05:27;;;;;;;7.28;1.50;;;;;;;;;;6084201;23;20149;-59
2023/10/01 16:08:22;;;;;;;5.22;1.60;;;;;;;;;;6085737;23;20026;-58
2023/10/01 16:11:09;;;;;;;5.35;1.50;;;;;;;;;;6084116;23;20030;-58
2023/10/01 16:14:15;;;;;;;8.60;1.70;;;;;;;;;;6083796;23;20034;-59
2023/10/01 16:17:31;;;;;;;7.78;1.77;;;;;;;;;;6086196;23;20619;-58
2023/10/01 16:20:00;;;;;;;7.13;2.00;;;;;;;;;;6085646;23;20058;-66
2023/10/01 16:23:00;;;;;;;9.70;1.88;;;;;;;;;;6085744;23;20559;-67
2023/10/01 16:25:51;;;;;;;8.95;1.90;;;;;;;;;;6085791;23;20085;-67
2023/10/01 16:28:53;;;;;;;7.53;1.80;;;;;;;;;;6086472;23;20027;-68
2023/10/01 16:31:36;;;;;;;7.22;2.00;;;;;;;;;;6085334;23;20023;-67
2023/10/01 16:34:39;;;;;;;12.55;1.92;;;;;;;;;;6085771;23;20097;-67
2023/10/01 16:37:21;;;;;;;11.35;2.17;;;;;;;;;;6085165;23;20804;-48
2023/10/01 16:40:18;;;;;;;8.93;2.03;;;;;;;;;;6084037;23;20495;-58
2023/10/01 16:43:15;;;;;;;9.88;2.15;;;;;;;;;;6085413;23;20042;-58
2023/10/01 16:46:02;;;;;;;5.88;1.92;;;;;;;;;;6084692;23;20205;-58
2023/10/01 16:48:37;;;;;;;8.30;2.22;;;;;;;;;;6084028;23;20113;-58
2023/10/01 16:51:25;;;;;;;;;;;;;;;;;;6084802;23;20472;-59
2023/10/01 16:54:21;;;;;;;8.18;2.00;;;;;;;;;;6084468;23;19925;-58
2023/10/01 16:57:11;;;;;;;6.28;1.75;;;;;;;;;;6087312;23;20069;-58
2023/10/01 17:00:01;;;;;;;7.75;2.00;;;;;;;;;;6082987;23;20033;-59
2023/10/01 17:02:48;;;;;;;7.20;2.15;;;;;;;;;;6083422;23;20081;-58
2023/10/01 17:05:42;;;;;;;11.98;2.28;;;;;;;;;;6083110;23;20034;-58
2023/10/01 17:08:34;;;;;;;12.00;2.13;;;;;;;;;;6081484;23;20027;-59
2023/10/01 17:11:24;;;;;;;10.52;2.38;;;;;;;;;;6084496;23;20361;-58
2023/10/01 17:14:14;;;;;;;12.25;2.22;;;;;;;;;;6084342;23;20030;-63
2023/10/01 17:16:49;;;;;;;13.10;2.20;;;;;;;;;;6082090;23;20097;-51
2023/10/01 17:19:43;;;;;;;9.48;2.20;;;;;;;;;;6082694;23;20732;-55
2023/10/01 17:22:31;;;;;;;9.45;2.08;;;;;;;;;;6083890;23;20022;-53
2023/10/01 17:25:26;;;;;;;14.07;2.63;;;;;;;;;;6084192;23;20026;-54
2023/10/01 17:28:23;;;;;;;12.43;2.22;;;;;;;;;;6083761;23;20019;-55
2023/10/01 17:31:07;;;;;;;11.38;2.25;;;;;;;;;;6082508;23;20030;-63
2023/10/01 17:33:36;;;;;;;8.63;2.05;;;;;;;;;;6081988;23;20022;-58
2023/10/01 17:36:08;;;;;;;8.73;2.22;;;;;;;;;;6084495;23;20085;-57
2023/10/01 17:39:19;;;;;;;11.90;1.95;;;;;;;;;;6081522;23;20030;-58
2023/10/01 17:42:01;;;;;;;11.80;2.67;;;;;;;;;;6080754;23;20026;-54
2023/10/01 17:44:48;;;;;;;10.95;2.10;;;;;;;;;;6081959;23;20050;-56
2023/10/01 17:47:44;;;;;;;6.72;2.47;;;;;;;;;;6081967;23;20077;-58
2023/10/01 17:50:31;;;;;;;10.68;2.53;;;;;;;;;;6082203;23;20030;-52
2023/10/01 17:53:23;;;;;;;9.57;2.58;;;;;;;;;;6081094;23;20560;-59
2023/10/01 17:56:19;;;;;;;13.23;2.28;;;;;;;;;;6082485;23;20489;-58